Little Elm, Texas
Current Conditions -  °F | °C
As of 9:48 AM on Saturday 22 Nov 2014 (Local Time) from KADS Reporting Station
Haze Haze  
Wind Chill: 59°   Ceiling: 600
Heat Index: 59°   Visibility: 3mi
Dew Point: 57°   Wind: 13mph
Humidity: 94%   Direction: 140°SE
Pressure: 30.05"   Gusts: 21mph
Location:  33.16°N, 96.93°W
Report Text: KADS 221548Z 14011G18KT 3SM BR OVC006 15/14 A3005
Loading
Personal Weather Stations






























Interactive Weather Map New forecast layout! Learn more

10-Day Weather Forecast

Advertisements
Track Severe Weather on mobile